sensor_id;sensor_type;location;lat;lon;timestamp;P1;durP1;ratioP1;P2;durP2;ratioP2
2211;SDS011;48849;48.758;9.158;2023-12-14T00:00:43;2.67;;;1.70;;
2211;SDS011;48849;48.758;9.158;2023-12-14T00:03:09;1.80;;;1.60;;
2211;SDS011;48849;48.758;9.158;2023-12-14T00:05:36;2.85;;;1.90;;
2211;SDS011;48849;48.758;9.158;2023-12-14T00:08:04;1.48;;;1.38;;
2211;SDS011;48849;48.758;9.158;2023-12-14T00:10:31;6.57;;;1.60;;
2211;SDS011;48849;48.758;9.158;2023-12-14T00:12:58;2.25;;;1.60;;
2211;SDS011;48849;48.758;9.158;2023-12-14T00:15:24;1.30;;;1.20;;
2211;SDS011;48849;48.758;9.158;2023-12-14T00:17:51;2.78;;;1.50;;
2211;SDS011;48849;48.758;9.158;2023-12-14T00:20:18;1.67;;;1.20;;
2211;SDS011;48849;48.758;9.158;2023-12-14T00:22:44;1.75;;;1.52;;
2211;SDS011;48849;48.758;9.158;2023-12-14T00:25:12;2.45;;;2.00;;
2211;SDS011;48849;48.758;9.158;2023-12-14T00:27:39;1.83;;;1.73;;
2211;SDS011;48849;48.758;9.158;2023-12-14T00:30:06;2.25;;;1.50;;
2211;SDS011;48849;48.758;9.158;2023-12-14T00:32:34;2.60;;;1.75;;
2211;SDS011;48849;48.758;9.158;2023-12-14T00:35:01;2.03;;;1.60;;
2211;SDS011;48849;48.758;9.158;2023-12-14T00:37:27;2.63;;;1.40;;
2211;SDS011;48849;48.758;9.158;2023-12-14T00:39:54;2.97;;;1.40;;
2211;SDS011;48849;48.758;9.158;2023-12-14T00:42:22;1.50;;;1.40;;
2211;SDS011;48849;48.758;9.158;2023-12-14T00:44:49;2.85;;;1.40;;
2211;SDS011;48849;48.758;9.158;2023-12-14T00:47:16;1.73;;;1.63;;
2211;SDS011;48849;48.758;9.158;2023-12-14T00:49:42;4.03;;;1.80;;
2211;SDS011;48849;48.758;9.158;2023-12-14T00:52:09;1.92;;;1.83;;
2211;SDS011;48849;48.758;9.158;2023-12-14T00:54:36;1.60;;;1.50;;
2211;SDS011;48849;48.758;9.158;2023-12-14T00:57:02;2.00;;;1.80;;
2211;SDS011;48849;48.758;9.158;2023-12-14T00:59:31;2.95;;;1.75;;
2211;SDS011;48849;48.758;9.158;2023-12-14T01:01:57;2.38;;;2.10;;
2211;SDS011;48849;48.758;9.158;2023-12-14T01:04:24;1.80;;;1.70;;
2211;SDS011;48849;48.758;9.158;2023-12-14T01:06:51;2.60;;;1.90;;
2211;SDS011;48849;48.758;9.158;2023-12-14T01:09:18;2.33;;;2.13;;
2211;SDS011;48849;48.758;9.158;2023-12-14T01:11:44;2.30;;;2.10;;
2211;SDS011;48849;48.758;9.158;2023-12-14T01:14:11;2.10;;;1.75;;
2211;SDS011;48849;48.758;9.158;2023-12-14T01:16:39;2.53;;;1.80;;
2211;SDS011;48849;48.758;9.158;2023-12-14T01:19:06;2.00;;;1.80;;
2211;SDS011;48849;48.758;9.158;2023-12-14T01:21:33;2.40;;;1.98;;
2211;SDS011;48849;48.758;9.158;2023-12-14T01:24:00;1.90;;;1.80;;
2211;SDS011;48849;48.758;9.158;2023-12-14T01:26:26;2.75;;;1.60;;
2211;SDS011;48849;48.758;9.158;2023-12-14T01:28:53;3.70;;;2.00;;
2211;SDS011;48849;48.758;9.158;2023-12-14T01:31:20;3.00;;;1.98;;
2211;SDS011;48849;48.758;9.158;2023-12-14T01:33:49;3.10;;;2.72;;
2211;SDS011;48849;48.758;9.158;2023-12-14T01:36:19;2.50;;;2.25;;
2211;SDS011;48849;48.758;9.158;2023-12-14T01:38:47;2.13;;;2.03;;
2211;SDS011;48849;48.758;9.158;2023-12-14T01:41:14;3.75;;;2.40;;
2211;SDS011;48849;48.758;9.158;2023-12-14T01:43:41;2.90;;;1.90;;
2211;SDS011;48849;48.758;9.158;2023-12-14T01:46:08;3.45;;;1.98;;
2211;SDS011;48849;48.758;9.158;2023-12-14T01:48:35;2.97;;;2.08;;
2211;SDS011;48849;48.758;9.158;2023-12-14T01:51:03;1.48;;;1.38;;
2211;SDS011;48849;48.758;9.158;2023-12-14T01:53:30;3.35;;;1.98;;
2211;SDS011;48849;48.758;9.158;2023-12-14T01:55:57;1.60;;;1.50;;
2211;SDS011;48849;48.758;9.158;2023-12-14T01:58:23;1.65;;;1.55;;
2211;SDS011;48849;48.758;9.158;2023-12-14T02:00:52;2.15;;;1.52;;
2211;SDS011;48849;48.758;9.158;2023-12-14T02:03:26;2.00;;;1.48;;
2211;SDS011;48849;48.758;9.158;2023-12-14T02:05:53;1.88;;;1.40;;
2211;SDS011;48849;48.758;9.158;2023-12-14T02:08:21;3.42;;;1.90;;
2211;SDS011;48849;48.758;9.158;2023-12-14T02:10:48;1.42;;;1.33;;
2211;SDS011;48849;48.758;9.158;2023-12-14T02:13:15;6.55;;;1.88;;
2211;SDS011;48849;48.758;9.158;2023-12-14T02:15:42;2.80;;;1.50;;
2211;SDS011;48849;48.758;9.158;2023-12-14T02:18:08;1.90;;;1.73;;
2211;SDS011;48849;48.758;9.158;2023-12-14T02:20:35;1.63;;;1.52;;
2211;SDS011;48849;48.758;9.158;2023-12-14T02:23:03;1.60;;;1.50;;
2211;SDS011;48849;48.758;9.158;2023-12-14T02:25:30;1.70;;;1.60;;
2211;SDS011;48849;48.758;9.158;2023-12-14T02:27:56;1.42;;;1.33;;
2211;SDS011;48849;48.758;9.158;2023-12-14T02:30:23;5.00;;;1.60;;
2211;SDS011;48849;48.758;9.158;2023-12-14T02:32:50;2.75;;;1.30;;
2211;SDS011;48849;48.758;9.158;2023-12-14T02:35:17;1.60;;;1.50;;
2211;SDS011;48849;48.758;9.158;2023-12-14T02:37:44;1.70;;;1.60;;
2211;SDS011;48849;48.758;9.158;2023-12-14T02:40:12;1.67;;;1.58;;
2211;SDS011;48849;48.758;9.158;2023-12-14T02:42:39;2.05;;;1.40;;
2211;SDS011;48849;48.758;9.158;2023-12-14T02:45:06;2.17;;;1.50;;
2211;SDS011;48849;48.758;9.158;2023-12-14T02:47:34;3.83;;;1.50;;
2211;SDS011;48849;48.758;9.158;2023-12-14T02:50:01;1.77;;;1.67;;
2211;SDS011;48849;48.758;9.158;2023-12-14T02:52:28;3.75;;;1.67;;
2211;SDS011;48849;48.758;9.158;2023-12-14T02:54:55;1.52;;;1.42;;
2211;SDS011;48849;48.758;9.158;2023-12-14T02:57:23;2.45;;;1.80;;
2211;SDS011;48849;48.758;9.158;2023-12-14T02:59:50;1.50;;;1.40;;
2211;SDS011;48849;48.758;9.158;2023-12-14T03:02:16;2.28;;;1.63;;
2211;SDS011;48849;48.758;9.158;2023-12-14T03:04:43;1.60;;;1.50;;
2211;SDS011;48849;48.758;9.158;2023-12-14T03:07:10;1.60;;;1.50;;
2211;SDS011;48849;48.758;9.158;2023-12-14T03:09:38;1.60;;;1.50;;
2211;SDS011;48849;48.758;9.158;2023-12-14T03:12:08;2.13;;;1.20;;
2211;SDS011;48849;48.758;9.158;2023-12-14T03:14:36;2.15;;;1.67;;
2211;SDS011;48849;48.758;9.158;2023-12-14T03:17:03;5.45;;;1.42;;
2211;SDS011;48849;48.758;9.158;2023-12-14T03:19:30;1.70;;;1.60;;
2211;SDS011;48849;48.758;9.158;2023-12-14T03:21:57;1.80;;;1.60;;
2211;SDS011;48849;48.758;9.158;2023-12-14T03:24:24;5.00;;;1.50;;
2211;SDS011;48849;48.758;9.158;2023-12-14T03:26:50;2.35;;;1.38;;
2211;SDS011;48849;48.758;9.158;2023-12-14T03:29:18;3.35;;;1.83;;
2211;SDS011;48849;48.758;9.158;2023-12-14T03:31:47;1.95;;;1.65;;
2211;SDS011;48849;48.758;9.158;2023-12-14T03:34:14;1.77;;;1.17;;
2211;SDS011;48849;48.758;9.158;2023-12-14T03:36:41;2.80;;;1.50;;
2211;SDS011;48849;48.758;9.158;2023-12-14T03:39:08;2.10;;;1.50;;
2211;SDS011;48849;48.758;9.158;2023-12-14T03:41:35;1.50;;;1.40;;
2211;SDS011;48849;48.758;9.158;2023-12-14T03:44:01;2.25;;;1.60;;
2211;SDS011;48849;48.758;9.158;2023-12-14T03:46:29;2.15;;;1.50;;
2211;SDS011;48849;48.758;9.158;2023-12-14T03:48:57;1.80;;;1.70;;
2211;SDS011;48849;48.758;9.158;2023-12-14T03:51:24;1.33;;;1.30;;
2211;SDS011;48849;48.758;9.158;2023-12-14T03:53:50;2.45;;;1.63;;
2211;SDS011;48849;48.758;9.158;2023-12-14T03:56:17;2.95;;;1.60;;
2211;SDS011;48849;48.758;9.158;2023-12-14T03:58:44;2.60;;;1.80;;
2211;SDS011;48849;48.758;9.158;2023-12-14T04:01:16;1.63;;;1.52;;
2211;SDS011;48849;48.758;9.158;2023-12-14T04:03:43;3.70;;;2.00;;
2211;SDS011;48849;48.758;9.158;2023-12-14T04:06:12;2.20;;;1.60;;
2211;SDS011;48849;48.758;9.158;2023-12-14T04:08:39;3.30;;;1.70;;
2211;SDS011;48849;48.758;9.158;2023-12-14T04:11:05;2.08;;;1.40;;
2211;SDS011;48849;48.758;9.158;2023-12-14T04:13:33;3.50;;;1.80;;
2211;SDS011;48849;48.758;9.158;2023-12-14T04:16:00;1.40;;;1.23;;
2211;SDS011;48849;48.758;9.158;2023-12-14T04:18:26;2.08;;;1.60;;
2211;SDS011;48849;48.758;9.158;2023-12-14T04:20:53;3.33;;;1.55;;
2211;SDS011;48849;48.758;9.158;2023-12-14T04:23:21;1.75;;;1.65;;
2211;SDS011;48849;48.758;9.158;2023-12-14T04:25:48;2.50;;;2.10;;
2211;SDS011;48849;48.758;9.158;2023-12-14T04:28:15;2.38;;;2.20;;
2211;SDS011;48849;48.758;9.158;2023-12-14T04:30:42;1.63;;;1.52;;
2211;SDS011;48849;48.758;9.158;2023-12-14T04:33:08;1.80;;;1.70;;
2211;SDS011;48849;48.758;9.158;2023-12-14T04:35:36;2.97;;;2.67;;
2211;SDS011;48849;48.758;9.158;2023-12-14T04:38:03;3.35;;;2.30;;
2211;SDS011;48849;48.758;9.158;2023-12-14T04:40:31;2.03;;;1.85;;
2211;SDS011;48849;48.758;9.158;2023-12-14T04:42:58;3.05;;;2.30;;
2211;SDS011;48849;48.758;9.158;2023-12-14T04:45:25;2.40;;;2.20;;
2211;SDS011;48849;48.758;9.158;2023-12-14T04:47:51;2.20;;;2.00;;
2211;SDS011;48849;48.758;9.158;2023-12-14T04:50:18;2.67;;;2.30;;
2211;SDS011;48849;48.758;9.158;2023-12-14T04:52:46;2.40;;;2.20;;
2211;SDS011;48849;48.758;9.158;2023-12-14T04:55:12;3.20;;;2.90;;
2211;SDS011;48849;48.758;9.158;2023-12-14T04:57:41;2.70;;;2.50;;
2211;SDS011;48849;48.758;9.158;2023-12-14T05:00:08;2.50;;;2.30;;
2211;SDS011;48849;48.758;9.158;2023-12-14T05:02:35;4.18;;;2.67;;
2211;SDS011;48849;48.758;9.158;2023-12-14T05:05:02;2.80;;;2.60;;
2211;SDS011;48849;48.758;9.158;2023-12-14T05:07:30;3.92;;;2.35;;
2211;SDS011;48849;48.758;9.158;2023-12-14T05:09:56;3.42;;;2.90;;
2211;SDS011;48849;48.758;9.158;2023-12-14T05:12:23;3.55;;;3.13;;
2211;SDS011;48849;48.758;9.158;2023-12-14T05:14:53;3.55;;;3.25;;
2211;SDS011;48849;48.758;9.158;2023-12-14T05:17:20;3.75;;;3.42;;
2211;SDS011;48849;48.758;9.158;2023-12-14T05:19:46;3.78;;;3.22;;
2211;SDS011;48849;48.758;9.158;2023-12-14T05:22:13;4.00;;;3.60;;
2211;SDS011;48849;48.758;9.158;2023-12-14T05:24:40;4.60;;;3.83;;
2211;SDS011;48849;48.758;9.158;2023-12-14T05:27:07;4.50;;;3.92;;
2211;SDS011;48849;48.758;9.158;2023-12-14T05:29:34;6.78;;;4.80;;
2211;SDS011;48849;48.758;9.158;2023-12-14T05:32:02;5.05;;;4.55;;
2211;SDS011;48849;48.758;9.158;2023-12-14T05:34:29;4.70;;;4.32;;
2211;SDS011;48849;48.758;9.158;2023-12-14T05:36:56;4.80;;;4.32;;
2211;SDS011;48849;48.758;9.158;2023-12-14T05:39:22;5.10;;;4.57;;
2211;SDS011;48849;48.758;9.158;2023-12-14T05:41:49;4.88;;;4.43;;
2211;SDS011;48849;48.758;9.158;2023-12-14T05:44:16;5.28;;;4.80;;
2211;SDS011;48849;48.758;9.158;2023-12-14T05:46:43;4.32;;;3.92;;
2211;SDS011;48849;48.758;9.158;2023-12-14T05:49:11;5.38;;;4.82;;
2211;SDS011;48849;48.758;9.158;2023-12-14T05:51:38;5.53;;;4.88;;
2211;SDS011;48849;48.758;9.158;2023-12-14T05:54:04;5.65;;;4.70;;
2211;SDS011;48849;48.758;9.158;2023-12-14T05:56:31;6.40;;;4.50;;
2211;SDS011;48849;48.758;9.158;2023-12-14T05:58:58;5.32;;;4.85;;
2211;SDS011;48849;48.758;9.158;2023-12-14T06:01:25;6.97;;;5.57;;
2211;SDS011;48849;48.758;9.158;2023-12-14T06:03:52;7.22;;;5.68;;
2211;SDS011;48849;48.758;9.158;2023-12-14T06:06:20;7.82;;;5.47;;
2211;SDS011;48849;48.758;9.158;2023-12-14T06:08:47;5.90;;;5.40;;
2211;SDS011;48849;48.758;9.158;2023-12-14T06:11:14;5.95;;;5.28;;
2211;SDS011;48849;48.758;9.158;2023-12-14T06:13:41;6.10;;;5.57;;
2211;SDS011;48849;48.758;9.158;2023-12-14T06:16:08;6.47;;;4.82;;
2211;SDS011;48849;48.758;9.158;2023-12-14T06:18:37;5.18;;;4.72;;
2211;SDS011;48849;48.758;9.158;2023-12-14T06:21:06;6.25;;;4.30;;
2211;SDS011;48849;48.758;9.158;2023-12-14T06:23:35;5.30;;;4.80;;
2211;SDS011;48849;48.758;9.158;2023-12-14T06:26:02;6.13;;;5.35;;
2211;SDS011;48849;48.758;9.158;2023-12-14T06:28:29;7.25;;;5.30;;
2211;SDS011;48849;48.758;9.158;2023-12-14T06:30:56;5.35;;;4.85;;
2211;SDS011;48849;48.758;9.158;2023-12-14T06:33:23;6.07;;;5.07;;
2211;SDS011;48849;48.758;9.158;2023-12-14T06:35:50;7.70;;;5.40;;
2211;SDS011;48849;48.758;9.158;2023-12-14T06:38:16;6.15;;;4.80;;
2211;SDS011;48849;48.758;9.158;2023-12-14T06:40:45;5.60;;;5.10;;
2211;SDS011;48849;48.758;9.158;2023-12-14T06:43:12;5.68;;;5.28;;
2211;SDS011;48849;48.758;9.158;2023-12-14T06:45:38;6.63;;;4.93;;
2211;SDS011;48849;48.758;9.158;2023-12-14T06:48:05;6.10;;;5.50;;
2211;SDS011;48849;48.758;9.158;2023-12-14T06:50:32;6.78;;;5.32;;
2211;SDS011;48849;48.758;9.158;2023-12-14T06:52:59;5.68;;;5.10;;
2211;SDS011;48849;48.758;9.158;2023-12-14T06:55:25;6.68;;;5.30;;
2211;SDS011;48849;48.758;9.158;2023-12-14T06:57:54;5.53;;;5.03;;
2211;SDS011;48849;48.758;9.158;2023-12-14T07:00:20;6.28;;;5.20;;
2211;SDS011;48849;48.758;9.158;2023-12-14T07:02:47;5.90;;;5.20;;
2211;SDS011;48849;48.758;9.158;2023-12-14T07:05:14;5.75;;;5.25;;
2211;SDS011;48849;48.758;9.158;2023-12-14T07:07:41;7.15;;;5.28;;
2211;SDS011;48849;48.758;9.158;2023-12-14T07:10:08;6.93;;;5.90;;
2211;SDS011;48849;48.758;9.158;2023-12-14T07:12:35;6.70;;;6.00;;
2211;SDS011;48849;48.758;9.158;2023-12-14T07:15:03;6.63;;;6.03;;
2211;SDS011;48849;48.758;9.158;2023-12-14T07:17:31;6.47;;;5.85;;
2211;SDS011;48849;48.758;9.158;2023-12-14T07:19:58;6.55;;;5.95;;
2211;SDS011;48849;48.758;9.158;2023-12-14T07:22:25;6.47;;;5.88;;
2211;SDS011;48849;48.758;9.158;2023-12-14T07:24:51;8.45;;;6.00;;
2211;SDS011;48849;48.758;9.158;2023-12-14T07:27:18;6.60;;;5.88;;
2211;SDS011;48849;48.758;9.158;2023-12-14T07:29:45;7.72;;;5.70;;
2211;SDS011;48849;48.758;9.158;2023-12-14T07:32:13;5.90;;;5.40;;
2211;SDS011;48849;48.758;9.158;2023-12-14T07:34:40;5.80;;;5.20;;
2211;SDS011;48849;48.758;9.158;2023-12-14T07:37:06;7.43;;;5.90;;
2211;SDS011;48849;48.758;9.158;2023-12-14T07:39:33;7.85;;;6.30;;
2211;SDS011;48849;48.758;9.158;2023-12-14T07:42:00;8.27;;;6.55;;
2211;SDS011;48849;48.758;9.158;2023-12-14T07:44:27;7.10;;;6.40;;
2211;SDS011;48849;48.758;9.158;2023-12-14T07:46:55;7.05;;;5.72;;
2211;SDS011;48849;48.758;9.158;2023-12-14T07:49:23;5.82;;;5.22;;
2211;SDS011;48849;48.758;9.158;2023-12-14T07:51:50;7.78;;;5.35;;
2211;SDS011;48849;48.758;9.158;2023-12-14T07:54:17;5.85;;;5.10;;
2211;SDS011;48849;48.758;9.158;2023-12-14T07:56:44;5.88;;;5.18;;
2211;SDS011;48849;48.758;9.158;2023-12-14T07:59:11;7.63;;;5.43;;
2211;SDS011;48849;48.758;9.158;2023-12-14T08:01:38;8.25;;;5.55;;
2211;SDS011;48849;48.758;9.158;2023-12-14T08:04:04;5.25;;;4.75;;
2211;SDS011;48849;48.758;9.158;2023-12-14T08:06:33;5.20;;;4.70;;
2211;SDS011;48849;48.758;9.158;2023-12-14T08:08:59;8.13;;;4.88;;
2211;SDS011;48849;48.758;9.158;2023-12-14T08:11:27;5.93;;;4.82;;
2211;SDS011;48849;48.758;9.158;2023-12-14T08:13:53;5.88;;;5.07;;
2211;SDS011;48849;48.758;9.158;2023-12-14T08:16:20;4.55;;;4.10;;
2211;SDS011;48849;48.758;9.158;2023-12-14T08:18:47;7.18;;;4.70;;
2211;SDS011;48849;48.758;9.158;2023-12-14T08:21:14;6.80;;;4.95;;
2211;SDS011;48849;48.758;9.158;2023-12-14T08:23:42;6.70;;;5.88;;
2211;SDS011;48849;48.758;9.158;2023-12-14T08:26:09;6.10;;;4.72;;
2211;SDS011;48849;48.758;9.158;2023-12-14T08:28:38;9.23;;;5.20;;
2211;SDS011;48849;48.758;9.158;2023-12-14T08:31:05;6.00;;;5.45;;
2211;SDS011;48849;48.758;9.158;2023-12-14T08:33:33;5.13;;;4.60;;
2211;SDS011;48849;48.758;9.158;2023-12-14T08:36:00;4.95;;;4.55;;
2211;SDS011;48849;48.758;9.158;2023-12-14T08:38:27;6.05;;;5.00;;
2211;SDS011;48849;48.758;9.158;2023-12-14T08:40:55;5.97;;;5.18;;
2211;SDS011;48849;48.758;9.158;2023-12-14T08:43:21;5.40;;;4.90;;
2211;SDS011;48849;48.758;9.158;2023-12-14T08:45:48;5.68;;;4.93;;
2211;SDS011;48849;48.758;9.158;2023-12-14T08:48:15;6.70;;;5.70;;
2211;SDS011;48849;48.758;9.158;2023-12-14T08:50:42;6.82;;;5.20;;
2211;SDS011;48849;48.758;9.158;2023-12-14T08:53:09;6.95;;;5.57;;
2211;SDS011;48849;48.758;9.158;2023-12-14T08:55:36;6.43;;;5.88;;
2211;SDS011;48849;48.758;9.158;2023-12-14T08:58:04;6.20;;;5.70;;
2211;SDS011;48849;48.758;9.158;2023-12-14T09:00:31;6.72;;;6.03;;
2211;SDS011;48849;48.758;9.158;2023-12-14T09:02:58;9.70;;;7.07;;
2211;SDS011;48849;48.758;9.158;2023-12-14T09:05:25;7.93;;;6.20;;
2211;SDS011;48849;48.758;9.158;2023-12-14T09:07:52;7.10;;;6.40;;
2211;SDS011;48849;48.758;9.158;2023-12-14T09:10:21;7.10;;;6.47;;
2211;SDS011;48849;48.758;9.158;2023-12-14T09:12:48;8.05;;;5.68;;
2211;SDS011;48849;48.758;9.158;2023-12-14T09:15:16;7.28;;;6.57;;
2211;SDS011;48849;48.758;9.158;2023-12-14T09:17:43;7.15;;;6.45;;
2211;SDS011;48849;48.758;9.158;2023-12-14T09:20:10;6.82;;;6.22;;
2211;SDS011;48849;48.758;9.158;2023-12-14T09:22:37;7.35;;;6.57;;
2211;SDS011;48849;48.758;9.158;2023-12-14T09:25:04;6.93;;;6.28;;
2211;SDS011;48849;48.758;9.158;2023-12-14T09:27:34;7.57;;;6.88;;
2211;SDS011;48849;48.758;9.158;2023-12-14T09:30:01;10.95;;;9.82;;
2211;SDS011;48849;48.758;9.158;2023-12-14T09:32:29;9.43;;;8.45;;
2211;SDS011;48849;48.758;9.158;2023-12-14T09:34:56;8.93;;;7.25;;
2211;SDS011;48849;48.758;9.158;2023-12-14T09:37:23;9.50;;;6.80;;
2211;SDS011;48849;48.758;9.158;2023-12-14T09:39:49;7.93;;;7.20;;
2211;SDS011;48849;48.758;9.158;2023-12-14T09:42:18;8.27;;;6.80;;
2211;SDS011;48849;48.758;9.158;2023-12-14T09:44:46;7.32;;;6.63;;
2211;SDS011;48849;48.758;9.158;2023-12-14T09:47:14;7.20;;;6.60;;
2211;SDS011;48849;48.758;9.158;2023-12-14T09:49:42;7.75;;;7.05;;
2211;SDS011;48849;48.758;9.158;2023-12-14T09:52:10;7.50;;;6.80;;
2211;SDS011;48849;48.758;9.158;2023-12-14T09:54:37;10.88;;;7.63;;
2211;SDS011;48849;48.758;9.158;2023-12-14T09:57:04;7.65;;;6.90;;
2211;SDS011;48849;48.758;9.158;2023-12-14T09:59:31;8.13;;;6.93;;
2211;SDS011;48849;48.758;9.158;2023-12-14T10:04:39;8.90;;;8.05;;
2211;SDS011;48849;48.758;9.158;2023-12-14T10:07:10;9.70;;;8.48;;
2211;SDS011;48849;48.758;9.158;2023-12-14T10:09:37;9.13;;;8.18;;
2211;SDS011;48849;48.758;9.158;2023-12-14T10:12:04;8.65;;;7.53;;
2211;SDS011;48849;48.758;9.158;2023-12-14T10:14:33;8.95;;;7.65;;
2211;SDS011;48849;48.758;9.158;2023-12-14T10:17:10;9.70;;;8.80;;
2211;SDS011;48849;48.758;9.158;2023-12-14T10:19:42;8.60;;;7.80;;
2211;SDS011;48849;48.758;9.158;2023-12-14T10:22:10;9.05;;;8.05;;
2211;SDS011;48849;48.758;9.158;2023-12-14T10:24:37;12.13;;;8.23;;
2211;SDS011;48849;48.758;9.158;2023-12-14T10:27:05;12.07;;;8.18;;
2211;SDS011;48849;48.758;9.158;2023-12-14T10:29:33;9.05;;;8.18;;
2211;SDS011;48849;48.758;9.158;2023-12-14T10:32:01;9.10;;;8.20;;
2211;SDS011;48849;48.758;9.158;2023-12-14T10:34:32;9.75;;;8.70;;
2211;SDS011;48849;48.758;9.158;2023-12-14T10:36:59;10.48;;;9.10;;
2211;SDS011;48849;48.758;9.158;2023-12-14T10:39:28;11.02;;;8.60;;
2211;SDS011;48849;48.758;9.158;2023-12-14T10:41:56;9.45;;;8.50;;
2211;SDS011;48849;48.758;9.158;2023-12-14T10:44:25;7.93;;;7.20;;
2211;SDS011;48849;48.758;9.158;2023-12-14T10:46:54;10.38;;;8.70;;
2211;SDS011;48849;48.758;9.158;2023-12-14T10:49:24;9.95;;;8.27;;
2211;SDS011;48849;48.758;9.158;2023-12-14T10:51:52;8.52;;;7.60;;
2211;SDS011;48849;48.758;9.158;2023-12-14T10:54:21;6.90;;;6.07;;
2211;SDS011;48849;48.758;9.158;2023-12-14T10:56:51;8.63;;;5.80;;
2211;SDS011;48849;48.758;9.158;2023-12-14T10:59:21;7.88;;;6.75;;
2211;SDS011;48849;48.758;9.158;2023-12-14T11:01:51;8.77;;;6.55;;
2211;SDS011;48849;48.758;9.158;2023-12-14T11:04:18;6.78;;;6.18;;
2211;SDS011;48849;48.758;9.158;2023-12-14T11:06:47;8.18;;;6.85;;
2211;SDS011;48849;48.758;9.158;2023-12-14T11:09:14;7.57;;;6.78;;
2211;SDS011;48849;48.758;9.158;2023-12-14T11:11:47;7.32;;;6.63;;
2211;SDS011;48849;48.758;9.158;2023-12-14T11:14:25;8.30;;;6.90;;
2211;SDS011;48849;48.758;9.158;2023-12-14T11:16:54;9.35;;;6.07;;
2211;SDS011;48849;48.758;9.158;2023-12-14T11:19:27;7.10;;;6.50;;
2211;SDS011;48849;48.758;9.158;2023-12-14T11:22:11;7.65;;;6.18;;
2211;SDS011;48849;48.758;9.158;2023-12-14T11:24:52;8.63;;;6.63;;
2211;SDS011;48849;48.758;9.158;2023-12-14T11:27:22;6.38;;;5.78;;
2211;SDS011;48849;48.758;9.158;2023-12-14T11:29:53;7.38;;;5.35;;
2211;SDS011;48849;48.758;9.158;2023-12-14T11:32:19;7.05;;;6.35;;
2211;SDS011;48849;48.758;9.158;2023-12-14T11:34:47;6.15;;;5.30;;
2211;SDS011;48849;48.758;9.158;2023-12-14T11:37:14;7.88;;;7.07;;
2211;SDS011;48849;48.758;9.158;2023-12-14T11:39:41;8.13;;;6.25;;
2211;SDS011;48849;48.758;9.158;2023-12-14T11:42:09;8.40;;;6.57;;
2211;SDS011;48849;48.758;9.158;2023-12-14T11:44:38;7.10;;;6.40;;
2211;SDS011;48849;48.758;9.158;2023-12-14T11:47:07;8.07;;;6.05;;
2211;SDS011;48849;48.758;9.158;2023-12-14T11:49:34;7.00;;;6.30;;
2211;SDS011;48849;48.758;9.158;2023-12-14T11:52:01;6.13;;;5.53;;
2211;SDS011;48849;48.758;9.158;2023-12-14T11:54:30;7.00;;;5.88;;
2211;SDS011;48849;48.758;9.158;2023-12-14T11:56:57;6.25;;;5.50;;
2211;SDS011;48849;48.758;9.158;2023-12-14T11:59:27;6.07;;;5.47;;
2211;SDS011;48849;48.758;9.158;2023-12-14T12:01:56;5.60;;;5.07;;
2211;SDS011;48849;48.758;9.158;2023-12-14T12:04:23;6.22;;;4.53;;
2211;SDS011;48849;48.758;9.158;2023-12-14T12:06:58;6.25;;;4.28;;
2211;SDS011;48849;48.758;9.158;2023-12-14T12:09:35;5.35;;;3.88;;
2211;SDS011;48849;48.758;9.158;2023-12-14T12:12:07;3.55;;;3.25;;
2211;SDS011;48849;48.758;9.158;2023-12-14T12:14:35;3.03;;;2.65;;
2211;SDS011;48849;48.758;9.158;2023-12-14T12:17:04;3.17;;;2.80;;
2211;SDS011;48849;48.758;9.158;2023-12-14T12:19:32;6.10;;;3.08;;
2211;SDS011;48849;48.758;9.158;2023-12-14T12:21:59;3.10;;;2.70;;
2211;SDS011;48849;48.758;9.158;2023-12-14T12:24:26;4.13;;;2.90;;
2211;SDS011;48849;48.758;9.158;2023-12-14T12:26:53;3.50;;;2.75;;
2211;SDS011;48849;48.758;9.158;2023-12-14T12:29:20;3.30;;;3.00;;
2211;SDS011;48849;48.758;9.158;2023-12-14T12:31:47;3.17;;;2.42;;
2211;SDS011;48849;48.758;9.158;2023-12-14T12:34:15;2.60;;;2.40;;
2211;SDS011;48849;48.758;9.158;2023-12-14T12:36:42;3.65;;;2.42;;
2211;SDS011;48849;48.758;9.158;2023-12-14T12:39:09;2.65;;;2.40;;
2211;SDS011;48849;48.758;9.158;2023-12-14T12:41:36;3.05;;;2.20;;
2211;SDS011;48849;48.758;9.158;2023-12-14T12:44:03;5.82;;;2.55;;
2211;SDS011;48849;48.758;9.158;2023-12-14T12:46:32;2.65;;;2.45;;
2211;SDS011;48849;48.758;9.158;2023-12-14T12:49:00;2.40;;;2.20;;
2211;SDS011;48849;48.758;9.158;2023-12-14T12:51:28;3.28;;;2.80;;
2211;SDS011;48849;48.758;9.158;2023-12-14T12:53:55;2.72;;;2.50;;
2211;SDS011;48849;48.758;9.158;2023-12-14T12:56:23;2.53;;;2.22;;
2211;SDS011;48849;48.758;9.158;2023-12-14T12:58:50;2.85;;;2.40;;
2211;SDS011;48849;48.758;9.158;2023-12-14T13:01:18;2.40;;;2.20;;
2211;SDS011;48849;48.758;9.158;2023-12-14T13:03:46;6.15;;;3.72;;
2211;SDS011;48849;48.758;9.158;2023-12-14T13:06:13;3.90;;;3.50;;
2211;SDS011;48849;48.758;9.158;2023-12-14T13:08:41;3.40;;;2.47;;
2211;SDS011;48849;48.758;9.158;2023-12-14T13:11:07;2.60;;;2.40;;
2211;SDS011;48849;48.758;9.158;2023-12-14T13:13:34;2.65;;;2.08;;
2211;SDS011;48849;48.758;9.158;2023-12-14T13:16:01;3.70;;;2.38;;
2211;SDS011;48849;48.758;9.158;2023-12-14T13:18:28;6.07;;;2.40;;
2211;SDS011;48849;48.758;9.158;2023-12-14T13:20:55;4.07;;;2.55;;
2211;SDS011;48849;48.758;9.158;2023-12-14T13:23:20;2.20;;;2.10;;
2211;SDS011;48849;48.758;9.158;2023-12-14T13:25:49;3.58;;;2.42;;
2211;SDS011;48849;48.758;9.158;2023-12-14T13:28:17;2.30;;;2.10;;
2211;SDS011;48849;48.758;9.158;2023-12-14T13:30:44;2.40;;;2.20;;
2211;SDS011;48849;48.758;9.158;2023-12-14T13:33:11;2.78;;;2.13;;
2211;SDS011;48849;48.758;9.158;2023-12-14T13:35:38;3.20;;;2.00;;
2211;SDS011;48849;48.758;9.158;2023-12-14T13:38:04;2.85;;;2.00;;
2211;SDS011;48849;48.758;9.158;2023-12-14T13:40:31;2.42;;;2.22;;
2211;SDS011;48849;48.758;9.158;2023-12-14T13:42:59;3.80;;;2.28;;
2211;SDS011;48849;48.758;9.158;2023-12-14T13:45:35;4.25;;;2.67;;
2211;SDS011;48849;48.758;9.158;2023-12-14T13:48:02;3.13;;;2.35;;
2211;SDS011;48849;48.758;9.158;2023-12-14T13:50:29;2.50;;;2.20;;
2211;SDS011;48849;48.758;9.158;2023-12-14T13:52:55;2.15;;;2.00;;
2211;SDS011;48849;48.758;9.158;2023-12-14T13:55:22;2.80;;;2.50;;
2211;SDS011;48849;48.758;9.158;2023-12-14T13:57:49;3.75;;;2.35;;
2211;SDS011;48849;48.758;9.158;2023-12-14T14:00:17;2.20;;;2.10;;
2211;SDS011;48849;48.758;9.158;2023-12-14T14:02:44;3.30;;;2.53;;
2211;SDS011;48849;48.758;9.158;2023-12-14T14:05:11;4.50;;;2.58;;
2211;SDS011;48849;48.758;9.158;2023-12-14T14:07:38;4.55;;;2.60;;
2211;SDS011;48849;48.758;9.158;2023-12-14T14:10:05;3.95;;;3.55;;
2211;SDS011;48849;48.758;9.158;2023-12-14T14:12:33;4.13;;;3.58;;
2211;SDS011;48849;48.758;9.158;2023-12-14T14:14:59;4.72;;;3.90;;
2211;SDS011;48849;48.758;9.158;2023-12-14T14:17:28;6.05;;;3.80;;
2211;SDS011;48849;48.758;9.158;2023-12-14T14:19:54;4.90;;;4.40;;
2211;SDS011;48849;48.758;9.158;2023-12-14T14:22:20;6.00;;;5.10;;
2211;SDS011;48849;48.758;9.158;2023-12-14T14:24:47;6.30;;;5.43;;
2211;SDS011;48849;48.758;9.158;2023-12-14T14:27:14;7.35;;;5.55;;
2211;SDS011;48849;48.758;9.158;2023-12-14T14:29:41;6.82;;;6.07;;
2211;SDS011;48849;48.758;9.158;2023-12-14T14:32:07;6.07;;;5.40;;
2211;SDS011;48849;48.758;9.158;2023-12-14T14:34:36;5.97;;;5.38;;
2211;SDS011;48849;48.758;9.158;2023-12-14T14:37:02;8.32;;;6.97;;
2211;SDS011;48849;48.758;9.158;2023-12-14T14:39:30;8.15;;;6.40;;
2211;SDS011;48849;48.758;9.158;2023-12-14T14:41:57;12.30;;;7.07;;
2211;SDS011;48849;48.758;9.158;2023-12-14T14:44:24;9.63;;;7.40;;
2211;SDS011;48849;48.758;9.158;2023-12-14T14:46:51;10.85;;;8.95;;
2211;SDS011;48849;48.758;9.158;2023-12-14T14:49:18;11.55;;;8.23;;
2211;SDS011;48849;48.758;9.158;2023-12-14T14:51:46;9.90;;;8.10;;
2211;SDS011;48849;48.758;9.158;2023-12-14T14:54:13;11.45;;;9.30;;
2211;SDS011;48849;48.758;9.158;2023-12-14T14:56:40;11.30;;;9.63;;
2211;SDS011;48849;48.758;9.158;2023-12-14T14:59:08;11.48;;;9.55;;
2211;SDS011;48849;48.758;9.158;2023-12-14T15:01:36;10.65;;;8.55;;
2211;SDS011;48849;48.758;9.158;2023-12-14T15:04:03;9.20;;;8.18;;